Time;durP1;ratioP1;P1;durP2;ratioP2;P2;SDS_P1;SDS_P2;PMS_P1;PMS_P2;Temp;Humidity;BMP_temperature;BMP_pressure;BME280_temperature;BME280_humidity;BME280_pressure;Samples;Min_cycle;Max_cycle;Signal;HPM_P1;HPM_P2
2021/09/24 00:00:45;;;;;;;;;;;;;;;11.16;100.00;100248.97;5013501;28;19956;-74
2021/09/24 00:03:11;;;;;;;;;;;;;;;11.18;100.00;100252.44;5013218;28;20464;-74
2021/09/24 00:05:39;;;;;;;;;;;;;;;11.15;100.00;100240.97;5012100;28;19929;-74
2021/09/24 00:08:05;;;;;;;;;;;;;;;11.06;100.00;100258.97;5013042;28;20029;-74
2021/09/24 00:10:32;;;;;;;;;;;;;;;10.99;100.00;100246.94;5013088;28;19936;-73
2021/09/24 00:12:58;;;;;;;;;;;;;;;10.99;100.00;100264.09;5013353;28;20514;-74
2021/09/24 00:15:24;;;;;;;;;;;;;;;10.95;100.00;100264.50;5011838;28;19965;-74
2021/09/24 00:17:51;;;;;;;;;;;;;;;10.99;100.00;100271.38;5012914;28;20020;-73
2021/09/24 00:20:17;;;;;;;;;;;;;;;10.99;100.00;100272.22;5012937;28;20345;-74
2021/09/24 00:22:45;;;;;;;;;;;;;;;11.07;100.00;100255.25;5013095;28;20369;-73
2021/09/24 00:25:11;;;;;;;;;;;;;;;11.14;100.00;100269.97;5013150;28;19979;-74
2021/09/24 00:27:38;;;;;;;;;;;;;;;11.19;100.00;100275.84;5013041;28;20016;-74
2021/09/24 00:30:05;;;;;;;;;;;;;;;11.26;100.00;100261.72;5012756;28;20020;-74
2021/09/24 00:32:31;;;;;;;;;;;;;;;11.32;100.00;100275.59;5012958;28;20484;-74
2021/09/24 00:34:57;;;;;;;;;;;;;;;11.39;100.00;100278.63;5012963;28;20028;-74
2021/09/24 00:37:23;;;;;;;;;;;;;;;11.42;100.00;100272.03;5012479;28;19926;-74
2021/09/24 00:39:51;;;;;;;;;;;;;;;11.44;100.00;100281.78;5012789;28;19968;-74
2021/09/24 00:42:17;;;;;;;;;;;;;;;11.47;100.00;100281.47;5012552;28;20008;-74
2021/09/24 00:44:44;;;;;;;;;;;;;;;11.49;100.00;100268.63;5011540;28;20371;-73
2021/09/24 00:47:11;;;;;;;;;;;;;;;11.49;100.00;100275.91;5011290;28;19965;-75
2021/09/24 00:49:37;;;;;;;;;;;;;;;11.49;100.00;100274.06;5011196;28;20016;-74
2021/09/24 00:52:04;;;;;;;;;;;;;;;11.48;100.00;100269.63;5012741;28;20190;-74
2021/09/24 00:54:31;;;;;;;;;;;;;;;11.49;100.00;100268.63;5011026;28;19964;-74
2021/09/24 00:57:00;;;;;;;;;;;;;;;11.50;100.00;100264.88;5012479;28;19965;-75
2021/09/24 00:59:27;;;;;;;;;;;;;;;11.48;100.00;100268.78;5010894;28;19933;-74
2021/09/24 01:01:53;;;;;;;;;;;;;;;11.47;100.00;100267.91;5010546;28;20009;-74
2021/09/24 01:04:20;;;;;;;;;;;;;;;11.46;100.00;100263.44;5012417;28;19964;-75
2021/09/24 01:06:46;;;;;;;;;;;;;;;11.47;100.00;100264.34;5012215;28;20083;-74
2021/09/24 01:09:12;;;;;;;;;;;;;;;11.46;100.00;100262.59;5012148;28;20016;-74
2021/09/24 01:11:39;;;;;;;;;;;;;;;11.44;100.00;100273.63;5012217;28;19925;-74
2021/09/24 01:14:07;;;;;;;;;;;;;;;11.43;100.00;100274.63;5012328;28;20361;-74
2021/09/24 01:16:33;;;;;;;;;;;;;;;11.44;100.00;100280.91;5010756;28;19937;-74
2021/09/24 01:18:59;;;;;;;;;;;;;;;11.42;100.00;100286.47;5012068;28;20377;-74
2021/09/24 01:21:27;;;;;;;;;;;;;;;11.43;100.00;100284.66;5012288;28;20019;-74
2021/09/24 01:23:53;;;;;;;;;;;;;;;11.41;100.00;100287.50;5012158;28;19964;-74
2021/09/24 01:26:20;;;;;;;;;;;;;;;11.40;100.00;100288.50;5012042;28;19936;-74
2021/09/24 01:28:46;;;;;;;;;;;;;;;11.39;100.00;100292.22;5011983;28;19968;-74
2021/09/24 01:31:13;;;;;;;;;;;;;;;11.37;100.00;100286.03;5012015;28;19925;-74
2021/09/24 01:33:43;;;;;;;;;;;;;;;11.38;100.00;100293.19;5011008;28;20369;-75
2021/09/24 01:36:09;;;;;;;;;;;;;;;11.37;100.00;100305.06;5011951;28;20072;-74
2021/09/24 01:38:38;;;;;;;;;;;;;;;11.36;100.00;100295.22;5011996;28;20025;-74
2021/09/24 01:41:04;;;;;;;;;;;;;;;11.37;100.00;100322.25;5011958;28;19926;-74
2021/09/24 01:43:31;;;;;;;;;;;;;;;11.38;100.00;100315.81;5011870;28;20482;-74
2021/09/24 01:45:57;;;;;;;;;;;;;;;11.36;100.00;100312.38;5011770;28;19929;-73
2021/09/24 01:48:25;;;;;;;;;;;;;;;11.37;100.00;100307.78;5011244;28;21590;-74
2021/09/24 01:50:52;;;;;;;;;;;;;;;11.35;100.00;100305.22;5011766;28;20025;-74
2021/09/24 01:53:18;;;;;;;;;;;;;;;11.34;100.00;100311.66;5011981;28;20008;-74
2021/09/24 01:55:45;;;;;;;;;;;;;;;11.35;100.00;100294.34;5008175;28;20025;-74
2021/09/24 01:58:12;;;;;;;;;;;;;;;11.36;100.00;100306.09;4992053;28;20096;-74
2021/09/24 02:00:38;;;;;;;;;;;;;;;11.35;100.00;100305.22;4992364;28;19954;-73
2021/09/24 02:03:04;;;;;;;;;;;;;;;11.37;100.00;100313.22;4992219;28;20183;-74
2021/09/24 02:05:31;;;;;;;;;;;;;;;11.37;100.00;100307.78;4992286;28;20029;-74
2021/09/24 02:07:57;;;;;;;;;;;;;;;11.37;100.00;100307.78;4992011;28;19989;-74
2021/09/24 02:10:24;;;;;;;;;;;;;;;11.35;100.00;100318.78;4991918;28;20016;-73
2021/09/24 02:12:51;;;;;;;;;;;;;;;11.36;100.00;100312.38;4992169;28;20432;-74
2021/09/24 02:15:18;;;;;;;;;;;;;;;11.35;100.00;100318.78;4994299;28;19929;-75
2021/09/24 02:17:44;;;;;;;;;;;;;;;11.35;100.00;100323.38;4995663;28;20025;-74
2021/09/24 02:20:11;;;;;;;;;;;;;;;11.35;100.00;100309.78;4995618;28;20083;-74
2021/09/24 02:22:37;;;;;;;;;;;;;;;11.36;100.00;100320.53;4995619;28;19958;-74
2021/09/24 02:25:03;;;;;;;;;;;;;;;11.35;100.00;100326.94;4995703;28;19926;-74
2021/09/24 02:27:30;;;;;;;;;;;;;;;11.36;100.00;100320.53;4995375;28;20008;-75
2021/09/24 02:29:57;;;;;;;;;;;;;;;11.35;100.00;100326.94;4995923;28;19953;-74
2021/09/24 02:32:23;;;;;;;;;;;;;;;11.36;100.00;100333.25;4995338;28;19979;-74
2021/09/24 02:34:50;;;;;;;;;;;;;;;11.35;100.00;100331.53;4995563;28;20389;-74
2021/09/24 02:37:16;;;;;;;;;;;;;;;11.36;100.00;100341.41;4995420;28;20024;-74
2021/09/24 02:39:42;;;;;;;;;;;;;;;11.34;100.00;100343.41;4995151;28;19926;-74
2021/09/24 02:42:09;;;;;;;;;;;;;;;11.31;100.00;100354.56;4995522;28;20454;-74
2021/09/24 02:44:35;;;;;;;;;;;;;;;11.31;100.00;100351.84;4995193;28;19934;-74
2021/09/24 02:47:03;;;;;;;;;;;;;;;11.32;100.00;100364.44;4995241;28;20063;-74
2021/09/24 02:49:29;;;;;;;;;;;;;;;11.29;100.00;100370.13;4995283;28;19930;-74
2021/09/24 02:51:55;;;;;;;;;;;;;;;11.27;100.00;100364.81;4995027;28;20439;-73
2021/09/24 02:54:22;;;;;;;;;;;;;;;11.27;100.00;100347.69;4993963;28;19973;-74
2021/09/24 02:56:48;;;;;;;;;;;;;;;11.29;100.00;100359.25;4994847;28;19980;-74
2021/09/24 02:59:14;;;;;;;;;;;;;;;11.27;100.00;100364.81;4993826;28;20016;-74
2021/09/24 03:01:40;;;;;;;;;;;;;;;11.26;100.00;100360.38;4994732;28;20033;-74
2021/09/24 03:04:08;;;;;;;;;;;;;;;11.26;100.00;100364.97;4995073;28;20489;-74
2021/09/24 03:06:35;;;;;;;;;;;;;;;11.23;100.00;100377.81;4994698;28;19989;-74
2021/09/24 03:09:01;;;;;;;;;;;;;;;11.23;100.00;100377.81;4994746;28;19926;-74
2021/09/24 03:11:27;;;;;;;;;;;;;;;11.24;100.00;100381.41;4994696;28;20028;-74
2021/09/24 03:13:53;;;;;;;;;;;;;;;11.24;100.00;100378.69;4994691;28;20035;-74
2021/09/24 03:16:20;;;;;;;;;;;;;;;11.25;100.00;100393.13;4994649;28;20064;-74
2021/09/24 03:18:47;;;;;;;;;;;;;;;11.23;100.00;100391.41;4994647;28;19933;-74
2021/09/24 03:21:14;;;;;;;;;;;;;;;11.23;100.00;100398.72;4994418;28;20360;-74
2021/09/24 03:23:41;;;;;;;;;;;;;;;11.22;100.00;100391.53;4993308;28;20021;-74
2021/09/24 03:26:07;;;;;;;;;;;;;;;11.20;100.00;100388.97;4994088;28;19961;-74
2021/09/24 03:28:34;;;;;;;;;;;;;;;11.19;100.00;100406.25;4994460;28;20008;-74
2021/09/24 03:31:00;;;;;;;;;;;;;;;11.20;100.00;100408.00;4993137;28;20016;-74
2021/09/24 03:33:26;;;;;;;;;;;;;;;11.22;100.00;100418.72;4994263;28;20012;-74
2021/09/24 03:35:53;;;;;;;;;;;;;;;11.16;100.00;100420.13;4994235;28;19932;-73
2021/09/24 03:38:21;;;;;;;;;;;;;;;11.12;100.00;100418.69;4994193;28;20021;-74
2021/09/24 03:40:47;;;;;;;;;;;;;;;11.12;100.00;100420.56;4994349;28;19926;-74
2021/09/24 03:43:13;;;;;;;;;;;;;;;11.12;100.00;100415.97;4994136;28;19988;-74
2021/09/24 03:45:40;;;;;;;;;;;;;;;11.14;100.00;100411.25;4994188;28;20021;-74
2021/09/24 03:48:06;;;;;;;;;;;;;;;11.14;100.00;100419.38;4992752;28;20464;-74
2021/09/24 03:50:32;;;;;;;;;;;;;;;11.16;100.00;100400.25;4994221;28;20016;-74
2021/09/24 03:52:59;;;;;;;;;;;;;;;11.16;100.00;100403.81;4994074;28;20389;-74
2021/09/24 03:55:26;;;;;;;;;;;;;;;11.17;100.00;100400.13;4976603;28;19933;-74
2021/09/24 03:57:53;;;;;;;;;;;;;;;11.16;100.00;100409.25;4993927;28;19973;-74
2021/09/24 04:00:19;;;;;;;;;;;;;;;11.17;100.00;100408.28;4993739;28;20021;-74
2021/09/24 04:02:45;;;;;;;;;;;;;;;11.16;100.00;100400.25;4993874;28;20362;-74
2021/09/24 04:05:12;;;;;;;;;;;;;;;11.15;100.00;100406.69;4996364;28;19976;-74
2021/09/24 04:07:38;;;;;;;;;;;;;;;11.15;100.00;100422.97;4993429;28;20059;-74
2021/09/24 04:10:05;;;;;;;;;;;;;;;11.18;100.00;100418.16;4993923;28;19973;-75
2021/09/24 04:12:33;;;;;;;;;;;;;;;11.19;100.00;100422.56;4993547;28;19930;-74
2021/09/24 04:14:59;;;;;;;;;;;;;;;11.21;100.00;100422.41;4993919;28;20016;-74
2021/09/24 04:17:25;;;;;;;;;;;;;;;11.22;100.00;100435.91;4993560;28;20020;-74
2021/09/24 04:19:52;;;;;;;;;;;;;;;11.24;100.00;100427.59;4993260;28;19964;-75
2021/09/24 04:22:18;;;;;;;;;;;;;;;11.24;100.00;100427.59;4993587;28;20024;-74
2021/09/24 04:24:44;;;;;;;;;;;;;;;11.27;100.00;100434.63;4993375;28;20013;-74
2021/09/24 04:27:11;;;;;;;;;;;;;;;11.27;100.00;100437.34;4993160;28;19964;-75
2021/09/24 04:29:38;;;;;;;;;;;;;;;11.28;100.00;100441.78;4992981;28;20016;-75
2021/09/24 04:32:05;;;;;;;;;;;;;;;11.27;100.00;100434.63;4993145;28;19965;-75
2021/09/24 04:34:31;;;;;;;;;;;;;;;11.27;100.00;100446.34;4993141;28;19940;-75
2021/09/24 04:36:58;;;;;;;;;;;;;;;11.27;100.00;100446.34;4991368;28;19925;-74
2021/09/24 04:39:24;;;;;;;;;;;;;;;11.28;100.00;100445.34;4993042;28;19932;-73
2021/09/24 04:41:51;;;;;;;;;;;;;;;11.28;100.00;100445.34;4992749;28;19933;-74
2021/09/24 04:44:17;;;;;;;;;;;;;;;11.28;100.00;100444.50;4993557;28;19968;-74
2021/09/24 04:46:46;;;;;;;;;;;;;;;11.28;100.00;100447.22;4997959;28;20062;-75
2021/09/24 04:49:13;;;;;;;;;;;;;;;11.26;100.00;100454.63;5010238;28;20308;-74
2021/09/24 04:51:39;;;;;;;;;;;;;;;11.28;100.00;100449.94;5011070;28;20028;-74
2021/09/24 04:54:05;;;;;;;;;;;;;;;11.27;100.00;100453.66;5010530;28;20024;-74
2021/09/24 04:56:32;;;;;;;;;;;;;;;11.28;100.00;100452.66;5005954;28;20020;-75
2021/09/24 04:58:58;;;;;;;;;;;;;;;11.26;100.00;100449.19;4992941;28;20016;-75
2021/09/24 05:01:24;;;;;;;;;;;;;;;11.25;100.00;100451.06;5001814;28;20020;-74
2021/09/24 05:03:52;;;;;;;;;;;;;;;11.25;100.00;100452.91;4991571;28;19926;-74
2021/09/24 05:06:18;;;;;;;;;;;;;;;11.24;100.00;100438.47;4992549;28;19972;-74
2021/09/24 05:08:44;;;;;;;;;;;;;;;11.23;100.00;100443.03;5000090;28;19953;-74
2021/09/24 05:11:11;;;;;;;;;;;;;;;11.23;100.00;100436.75;4996863;28;19926;-74
2021/09/24 05:13:37;;;;;;;;;;;;;;;11.22;100.00;100446.75;5000187;28;19967;-74
2021/09/24 05:16:03;;;;;;;;;;;;;;;11.23;100.00;100450.31;5003675;28;19963;-74
2021/09/24 05:18:30;;;;;;;;;;;;;;;11.22;100.00;100457.63;4992428;28;20009;-74
2021/09/24 05:20:57;;;;;;;;;;;;;;;11.23;100.00;100459.31;5004215;28;19953;-74
2021/09/24 05:23:24;;;;;;;;;;;;;;;11.23;100.00;100453.88;5010014;28;20412;-74
2021/09/24 05:25:50;;;;;;;;;;;;;;;11.23;100.00;100455.75;4995333;28;19984;-73
2021/09/24 05:28:16;;;;;;;;;;;;;;;11.26;100.00;100460.91;4991089;28;20020;-74
2021/09/24 05:30:42;;;;;;;;;;;;;;;11.24;100.00;100460.22;4992611;28;19976;-74
2021/09/24 05:33:09;;;;;;;;;;;;;;;11.26;100.00;100468.22;4992376;28;20469;-74
2021/09/24 05:35:35;;;;;;;;;;;;;;;11.26;100.00;100457.34;4992026;28;19933;-74
2021/09/24 05:38:03;;;;;;;;;;;;;;;11.23;100.00;100453.88;5009813;28;20020;-74
2021/09/24 05:40:29;;;;;;;;;;;;;;;11.24;100.00;100468.34;5017065;28;20020;-74
2021/09/24 05:42:56;;;;;;;;;;;;;;;11.21;100.00;100471.31;5011184;28;19972;-74
2021/09/24 05:45:22;;;;;;;;;;;;;;;11.16;100.00;100469.03;4993452;28;19968;-74
2021/09/24 05:47:48;;;;;;;;;;;;;;;11.14;100.00;100476.44;4999452;28;20013;-74
2021/09/24 05:50:15;;;;;;;;;;;;;;;11.12;100.00;100473.00;5011104;28;19972;-74
2021/09/24 05:52:43;;;;;;;;;;;;;;;11.16;100.00;100468.19;4995578;28;20428;-74
2021/09/24 05:55:11;;;;;;;;;;;;;;;11.16;100.00;100477.19;5001882;28;19980;-75
2021/09/24 05:57:37;;;;;;;;;;;;;;;11.24;100.00;100471.06;5003962;28;19930;-75
2021/09/24 06:00:05;;;;;;;;;;;;;;;11.32;100.00;100478.56;4995931;28;20072;-74
2021/09/24 06:02:38;;;;;;;;;;;;;;;11.38;100.00;100478.88;4999582;28;19945;-76
2021/09/24 06:05:04;;;;;;;;;;;;;;;11.51;100.00;100480.50;5007284;28;19960;-76
2021/09/24 06:07:31;;;;;;;;;;;;;;;11.55;100.00;100485.50;4996934;28;20401;-75
2021/09/24 06:09:57;;;;;;;;;;;;;;;11.56;100.00;100468.19;5013528;28;19953;-77
2021/09/24 06:12:25;;;;;;;;;;;;;;;11.64;100.00;100480.25;5015107;28;19926;-77
2021/09/24 06:14:51;;;;;;;;;;;;;;;11.69;100.00;100494.28;5013681;28;20024;-77
2021/09/24 06:17:18;;;;;;;;;;;;;;;11.80;100.00;100494.19;5015351;28;20383;-77
2021/09/24 06:19:44;;;;;;;;;;;;;;;11.84;100.00;100498.34;5014054;28;19953;-76
2021/09/24 06:22:10;;;;;;;;;;;;;;;11.86;100.00;100493.63;5007272;28;19968;-75
2021/09/24 06:24:37;;;;;;;;;;;;;;;11.94;100.00;100489.34;5002919;28;19929;-74
2021/09/24 06:27:03;;;;;;;;;;;;;;;12.01;100.00;100494.16;4999398;28;19957;-73
2021/09/24 06:29:31;;;;;;;;;;;;;;;12.18;100.00;100492.56;5003819;28;19930;-75
2021/09/24 06:31:57;;;;;;;;;;;;;;;12.48;100.00;100496.22;4998855;28;19973;-75
2021/09/24 06:34:24;;;;;;;;;;;;;;;12.69;100.00;100496.06;4999851;28;20437;-76
2021/09/24 06:36:50;;;;;;;;;;;;;;;12.61;100.00;100487.72;5012361;28;20024;-76
2021/09/24 06:39:16;;;;;;;;;;;;;;;12.53;100.00;100502.09;5010105;28;19965;-74
2021/09/24 06:41:42;;;;;;;;;;;;;;;12.71;100.00;100501.38;5009418;28;20032;-76
2021/09/24 06:44:11;;;;;;;;;;;;;;;12.93;100.00;100507.50;4995207;28;19968;-75
2021/09/24 06:46:39;;;;;;;;;;;;;;;12.97;100.00;100519.81;5011452;28;20381;-75
2021/09/24 06:49:05;;;;;;;;;;;;;;;12.96;100.00;100518.97;4998581;28;19925;-75
2021/09/24 06:51:31;;;;;;;;;;;;;;;13.15;100.00;100520.81;4996220;28;19968;-76
2021/09/24 06:53:58;;;;;;;;;;;;;;;13.07;100.00;100513.34;4998536;28;20028;-76
2021/09/24 06:56:24;;;;;;;;;;;;;;;13.43;100.00;100514.59;5022741;28;20012;-77
2021/09/24 06:58:50;;;;;;;;;;;;;;;13.61;100.00;100518.25;5014590;28;20367;-77
2021/09/24 07:01:17;;;;;;;;;;;;;;;13.88;100.00;100517.44;5011787;28;20025;-78
2021/09/24 07:03:44;;;;;;;;;;;;;;;14.13;100.00;100509.53;5001398;28;20024;-77
2021/09/24 07:06:12;;;;;;;;;;;;;;;14.19;100.00;100517.09;5014156;28;20024;-77
2021/09/24 07:08:38;;;;;;;;;;;;;;;14.42;100.00;100518.53;5013998;28;20419;-76
2021/09/24 07:11:05;;;;;;;;;;;;;;;14.14;100.00;100519.44;5013772;28;20029;-76
2021/09/24 07:13:31;;;;;;;;;;;;;;;14.09;100.00;100523.66;5013999;28;19977;-76
2021/09/24 07:15:57;;;;;;;;;;;;;;;13.83;100.00;100533.41;5012315;28;19936;-77
2021/09/24 07:18:23;;;;;;;;;;;;;;;13.58;100.00;100524.03;4999561;28;20020;-78
2021/09/24 07:20:51;;;;;;;;;;;;;;;13.58;100.00;100537.66;5012934;28;19929;-77
2021/09/24 07:23:17;;;;;;;;;;;;;;;13.95;100.00;100536.78;5014152;28;20024;-77
2021/09/24 07:25:43;;;;;;;;;;;;;;;14.06;100.00;100533.00;5013269;28;20084;-72
2021/09/24 07:28:10;;;;;;;;;;;;;;;14.30;100.00;100535.16;5009663;28;19956;-72
2021/09/24 07:30:36;;;;;;;;;;;;;;;14.52;100.00;100532.97;5022318;28;20450;-73
2021/09/24 07:33:03;;;;;;;;;;;;;;;14.38;100.00;100534.38;5019561;28;20007;-73
2021/09/24 07:35:29;;;;;;;;;;;;;;;14.32;100.00;100540.44;5018420;28;20343;-73
2021/09/24 07:37:57;;;;;;;;;;;;;;;14.32;100.00;100546.75;5002217;28;20025;-73
2021/09/24 07:40:24;;;;;;;;;;;;;;;14.19;100.00;100552.59;5013122;28;19930;-73
2021/09/24 07:42:50;;;;;;;;;;;;;;;14.47;100.00;100552.56;5009201;28;19936;-72
2021/09/24 07:45:17;;;;;;;;;;;;;;;14.79;100.00;100540.28;5013610;28;19925;-73
2021/09/24 07:47:43;;;;;;;;;;;;;;;14.97;100.00;100543.00;5011739;28;19925;-73
2021/09/24 07:50:10;;;;;;;;;;;;;;;14.86;100.00;100541.38;5032927;28;19925;-72
2021/09/24 07:52:36;;;;;;;;;;;;;;;15.04;100.00;100541.31;5014042;28;20032;-73
2021/09/24 07:55:04;;;;;;;;;;;;;;;15.61;100.00;100533.72;4999934;28;20016;-72
2021/09/24 07:57:30;;;;;;;;;;;;;;;15.97;100.00;100545.38;5011320;28;20016;-73
2021/09/24 07:59:57;;;;;;;;;;;;;;;15.90;100.00;100545.16;5009348;28;19925;-75
2021/09/24 08:02:23;;;;;;;;;;;;;;;16.00;100.00;100546.91;5011862;28;20368;-73
2021/09/24 08:04:49;;;;;;;;;;;;;;;16.46;100.00;100538.34;5006127;28;20028;-73
2021/09/24 08:07:16;;;;;;;;;;;;;;;16.85;100.00;100544.06;4995707;28;20001;-72
2021/09/24 08:09:42;;;;;;;;;;;;;;;16.84;100.00;100539.59;4993391;28;20017;-74
2021/09/24 08:12:10;;;;;;;;;;;;;;;16.54;100.00;100539.22;4992677;28;20345;-71
2021/09/24 08:14:36;;;;;;;;;;;;;;;16.59;100.00;100551.56;5003657;28;19929;-73
2021/09/24 08:17:03;;;;;;;;;;;;;;;16.66;100.00;100564.41;5007980;28;20012;-72
2021/09/24 08:19:29;;;;;;;;;;;;;;;16.55;100.00;100554.66;5003518;28;20372;-72
2021/09/24 08:21:55;;;;;;;;;;;;;;;16.52;100.00;100546.75;4995072;28;20024;-73
2021/09/24 08:24:22;;;;;;;;;;;;;;;16.63;100.00;100552.94;5004065;28;19930;-72
2021/09/24 08:26:48;;;;;;;;;;;;;;;16.67;100.00;100551.56;5012976;28;19975;-73
2021/09/24 08:29:16;;;;;;;;;;;;;;;17.03;100.00;100567.75;5011795;28;20087;-72
2021/09/24 08:31:42;;;;;;;;;;;;;;;16.54;100.00;100569.34;5011028;28;20025;-72
2021/09/24 08:34:08;;;;;;;;;;;;;;;16.93;100.00;100564.28;5001249;28;20448;-73
2021/09/24 08:36:35;;;;;;;;;;;;;;;17.23;100.00;100552.63;5007658;28;20020;-73
2021/09/24 08:39:01;;;;;;;;;;;;;;;16.84;100.00;100558.78;4997627;28;20032;-72
2021/09/24 08:41:29;;;;;;;;;;;;;;;16.91;100.00;100556.25;4992497;28;20145;-72
2021/09/24 08:43:55;;;;;;;;;;;;;;;16.80;100.00;100549.19;4992824;28;19925;-72
2021/09/24 08:46:23;;;;;;;;;;;;;;;16.70;100.00;100568.53;5004493;28;19953;-72
2021/09/24 08:48:49;;;;;;;;;;;;;;;16.69;100.00;100561.34;4992683;28;20029;-73
2021/09/24 08:51:16;;;;;;;;;;;;;;;16.22;100.00;100568.22;4996019;28;19930;-72
2021/09/24 08:53:42;;;;;;;;;;;;;;;16.50;100.00;100578.94;4995374;28;20388;-74
2021/09/24 08:56:10;;;;;;;;;;;;;;;16.52;100.00;100576.03;5012023;28;20020;-73
2021/09/24 08:58:37;;;;;;;;;;;;;;;16.20;100.00;100572.16;5003831;28;19956;-74
2021/09/24 09:01:04;;;;;;;;;;;;;;;16.22;100.00;100564.63;5000763;28;20392;-72
2021/09/24 09:03:38;;;;;;;;;;;;;;;16.76;100.00;100577.13;5025149;28;19931;-68
2021/09/24 09:06:05;;;;;;;;;;;;;;;17.31;100.00;100564.66;5012127;28;20058;-69
2021/09/24 09:08:32;;;;;;;;;;;;;;;17.52;100.00;100556.72;5009687;28;19933;-69
2021/09/24 09:11:00;;;;;;;;;;;;;;;18.13;100.00;100569.09;4992603;28;19926;-69
2021/09/24 09:13:27;;;;;;;;;;;;;;;18.21;100.00;100564.44;4995726;28;19930;-70
2021/09/24 09:15:55;;;;;;;;;;;;;;;18.49;100.00;100576.81;4993288;28;19926;-69
2021/09/24 09:18:21;;;;;;;;;;;;;;;18.63;100.00;100576.06;4990963;28;19961;-69
2021/09/24 09:20:49;;;;;;;;;;;;;;;17.99;100.00;100565.22;5008566;28;19972;-69
2021/09/24 09:23:17;;;;;;;;;;;;;;;18.40;100.00;100567.78;5011758;28;19973;-69
2021/09/24 09:25:44;;;;;;;;;;;;;;;17.69;100.00;100571.28;5001333;28;19929;-70
2021/09/24 09:28:12;;;;;;;;;;;;;;;17.73;100.00;100567.16;4998486;28;19969;-69
2021/09/24 09:30:40;;;;;;;;;;;;;;;17.91;100.00;100566.91;4994433;28;19926;-70
2021/09/24 09:33:10;;;;;;;;;;;;;;;18.50;100.00;100573.03;5005480;28;19977;-70
2021/09/24 09:35:38;;;;;;;;;;;;;;;17.82;100.00;100567.97;5019382;28;19944;-68
2021/09/24 09:38:06;;;;;;;;;;;;;;;17.54;100.00;100570.25;4992100;28;20433;-70
2021/09/24 09:40:32;;;;;;;;;;;;;;;17.45;100.00;100574.06;4997926;28;19977;-69
2021/09/24 09:42:59;;;;;;;;;;;;;;;17.62;100.00;100573.00;4992268;28;19969;-68
2021/09/24 09:45:27;;;;;;;;;;;;;;;17.56;100.00;100562.72;4992200;28;19926;-68
2021/09/24 09:47:53;;;;;;;;;;;;;;;17.60;100.00;100576.94;4993157;28;19926;-70
2021/09/24 09:50:21;;;;;;;;;;;;;;;17.60;100.00;100569.59;4993834;28;19926;-69
2021/09/24 09:53:01;;;;;;;;;;;;;;;17.42;100.00;100578.00;5028714;28;20032;-70
2021/09/24 09:55:31;;;;;;;;;;;;;;;17.22;100.00;100583.84;5027116;28;19991;-69
2021/09/24 09:58:00;;;;;;;;;;;;;;;16.99;100.00;100588.28;5011453;28;19968;-74
2021/09/24 10:00:26;;;;;;;;;;;;;;;16.83;100.00;100589.94;5007742;28;19925;-74
2021/09/24 10:03:02;;;;;;;;;;;;;;;16.64;100.00;100590.28;5004414;28;19927;-74
2021/09/24 10:05:32;;;;;;;;;;;;;;;16.66;100.00;100585.47;4986216;28;20023;-74
2021/09/24 10:08:01;;;;;;;;;;;;;;;16.44;100.00;100578.75;4997978;28;19933;-72
2021/09/24 10:10:27;;;;;;;;;;;;;;;17.32;100.00;100577.34;4980957;28;20047;-74
2021/09/24 10:13:04;;;;;;;;;;;;;;;17.45;100.00;100576.78;5005373;28;20415;-75
2021/09/24 10:15:30;;;;;;;;;;;;;;;17.55;100.00;100578.31;4997470;28;20102;-75
2021/09/24 10:17:57;;;;;;;;;;;;;;;17.32;100.00;100572.69;5006092;28;20025;-74
2021/09/24 10:20:23;;;;;;;;;;;;;;;17.20;100.00;100579.56;5001890;28;20021;-74
2021/09/24 10:22:49;;;;;;;;;;;;;;;17.07;100.00;100585.56;4991612;28;20018;-74
2021/09/24 10:25:21;;;;;;;;;;;;;;;16.95;100.00;100579.53;4999089;28;19965;-75
2021/09/24 10:27:47;;;;;;;;;;;;;;;16.83;100.00;100567.19;5009099;28;19925;-74
2021/09/24 10:30:18;;;;;;;;;;;;;;;16.47;100.00;100584.72;4994747;28;20008;-73
2021/09/24 10:32:53;;;;;;;;;;;;;;;16.45;100.00;100580.44;5003148;28;20008;-73
2021/09/24 10:35:19;;;;;;;;;;;;;;;16.32;100.00;100589.16;5008866;28;20032;-73
2021/09/24 10:37:46;;;;;;;;;;;;;;;16.25;100.00;100572.53;4994036;28;19979;-73
2021/09/24 10:40:26;;;;;;;;;;;;;;;16.27;100.00;100578.69;4999459;28;20021;-74
2021/09/24 10:42:56;;;;;;;;;;;;;;;16.40;100.00;100576.31;4997608;28;20359;-72
2021/09/24 10:45:32;;;;;;;;;;;;;;;16.56;100.00;100572.78;4995932;28;19929;-74
2021/09/24 10:48:03;;;;;;;;;;;;;;;16.40;100.00;100572.75;5000065;28;19926;-73
2021/09/24 10:51:00;;;;;;;;;;;;;;;16.57;100.00;100566.28;5014321;28;19925;-75
2021/09/24 10:53:29;;;;;;;;;;;;;;;16.56;100.00;100559.06;4997724;28;19932;-75
2021/09/24 10:56:14;;;;;;;;;;;;;;;16.65;100.00;100564.56;4994722;28;19930;-73
2021/09/24 10:58:41;;;;;;;;;;;;;;;16.83;100.00;100564.44;4996157;28;20440;-74
2021/09/24 11:01:12;;;;;;;;;;;;;;;16.86;100.00;100567.69;4995939;28;19961;-75
2021/09/24 11:03:51;;;;;;;;;;;;;;;17.01;100.00;100565.16;5008875;28;19936;-76
2021/09/24 11:06:33;;;;;;;;;;;;;;;17.10;100.00;100566.00;5001454;28;19932;-76
2021/09/24 11:08:59;;;;;;;;;;;;;;;16.93;100.00;100573.41;5012681;28;20129;-75
2021/09/24 11:11:31;;;;;;;;;;;;;;;16.84;100.00;100564.25;5022339;28;19926;-74
2021/09/24 11:13:59;;;;;;;;;;;;;;;16.67;100.00;100573.50;5002492;28;19962;-75
2021/09/24 11:16:27;;;;;;;;;;;;;;;16.40;100.00;100572.75;5013925;28;20367;-74
2021/09/24 11:18:55;;;;;;;;;;;;;;;16.28;100.00;100565.84;5002388;28;19973;-73
2021/09/24 11:21:22;;;;;;;;;;;;;;;16.14;100.00;100568.22;5012975;28;19955;-74
2021/09/24 11:23:49;;;;;;;;;;;;;;;16.10;100.00;100564.09;5013462;28;20376;-76
2021/09/24 11:26:17;;;;;;;;;;;;;;;16.07;100.00;100575.34;5013834;28;20013;-75
2021/09/24 11:28:44;;;;;;;;;;;;;;;16.12;100.00;100572.97;5009263;28;19969;-74
2021/09/24 11:31:13;;;;;;;;;;;;;;;16.23;100.00;100571.81;5016663;28;19926;-74
2021/09/24 11:33:46;;;;;;;;;;;;;;;16.51;100.00;100564.19;5008987;28;19980;-74
2021/09/24 11:36:15;;;;;;;;;;;;;;;16.63;100.00;100574.84;5010162;28;20003;-73
2021/09/24 11:38:41;;;;;;;;;;;;;;;16.72;100.00;100576.59;5004528;28;20363;-74
2021/09/24 11:41:08;;;;;;;;;;;;;;;16.71;100.00;100575.72;5005738;28;19992;-73
2021/09/24 11:43:36;;;;;;;;;;;;;;;16.77;100.00;100565.97;5006121;28;20021;-73
2021/09/24 11:46:10;;;;;;;;;;;;;;;16.88;100.00;100560.16;5006540;28;19925;-74
2021/09/24 11:48:37;;;;;;;;;;;;;;;16.98;100.00;100568.25;4999296;28;19932;-76
2021/09/24 11:51:24;;;;;;;;;;;;;;;17.07;100.00;100555.41;4994098;28;19984;-75
2021/09/24 11:53:54;;;;;;;;;;;;;;;16.94;100.00;100555.06;5007889;28;21919;-75
2021/09/24 11:56:21;;;;;;;;;;;;;;;16.79;100.00;100557.59;5008564;28;20365;-75
2021/09/24 11:58:59;;;;;;;;;;;;;;;16.44;100.00;100568.63;5011742;28;19965;-74
2021/09/24 12:01:26;;;;;;;;;;;;;;;16.42;100.00;100570.66;4997139;28;19964;-73
2021/09/24 12:03:56;;;;;;;;;;;;;;;16.57;100.00;100563.53;5013232;28;20381;-74
2021/09/24 12:06:22;;;;;;;;;;;;;;;16.60;100.00;100561.50;5008950;28;20043;-73
2021/09/24 12:08:50;;;;;;;;;;;;;;;16.61;100.00;100563.19;4993395;28;20350;-74
2021/09/24 12:11:19;;;;;;;;;;;;;;;16.69;100.00;100576.94;4994460;28;20625;-75
2021/09/24 12:13:46;;;;;;;;;;;;;;;16.57;100.00;100579.97;4993369;28;19953;-74
2021/09/24 12:16:15;;;;;;;;;;;;;;;16.54;100.00;100558.41;5002863;28;20063;-74
2021/09/24 12:18:49;;;;;;;;;;;;;;;16.50;100.00;100562.50;5004760;28;20381;-74
2021/09/24 12:21:17;;;;;;;;;;;;;;;16.49;100.00;100566.25;5006648;28;19965;-73
2021/09/24 12:23:44;;;;;;;;;;;;;;;16.67;100.00;100565.25;5000187;28;20036;-73
2021/09/24 12:26:12;;;;;;;;;;;;;;;16.69;100.00;100566.81;5011546;28;20008;-74
2021/09/24 12:28:54;;;;;;;;;;;;;;;16.71;100.00;100563.91;5012360;28;19933;-74